createdAt,value
2022-08-17T00:00:43.147Z,21.34
2022-08-17T00:03:13.662Z,21.12
2022-08-17T00:05:45.471Z,21.36
2022-08-17T00:08:17.413Z,20.50
2022-08-17T00:10:47.561Z,20.94
2022-08-17T00:13:24.014Z,21.07
2022-08-17T00:15:53.377Z,21.30
2022-08-17T00:19:06.566Z,21.38
2022-08-17T00:21:11.739Z,21.38
2022-08-17T00:23:49.115Z,21.32
2022-08-17T00:26:43.621Z,21.29
2022-08-17T00:29:08.619Z,21.18
2022-08-17T00:31:37.646Z,21.28
2022-08-17T00:34:08.829Z,21.24
2022-08-17T00:36:38.344Z,21.25
2022-08-17T00:39:08.070Z,21.18
2022-08-17T00:41:36.774Z,21.16
2022-08-17T00:44:12.392Z,21.15
2022-08-17T00:46:45.569Z,20.94
2022-08-17T00:49:16.440Z,20.30
2022-08-17T00:51:49.709Z,20.95
2022-08-17T00:54:23.713Z,21.10
2022-08-17T00:56:55.154Z,21.06
2022-08-17T00:59:27.089Z,21.06
2022-08-17T01:01:55.753Z,21.05
2022-08-17T01:04:24.831Z,21.06
2022-08-17T01:06:54.353Z,21.06
2022-08-17T01:09:24.191Z,21.01
2022-08-17T01:11:53.134Z,20.96
2022-08-17T01:14:22.420Z,20.92
2022-08-17T01:16:52.665Z,20.85
2022-08-17T01:19:24.836Z,20.65
2022-08-17T01:21:59.942Z,20.85
2022-08-17T01:24:30.877Z,20.96
2022-08-17T01:27:02.132Z,20.87
2022-08-17T01:29:32.850Z,20.61
2022-08-17T01:32:04.837Z,20.53
2022-08-17T01:34:42.953Z,20.77
2022-08-17T01:37:12.813Z,20.80
2022-08-17T01:39:46.692Z,19.76
2022-08-17T01:42:25.504Z,19.69
2022-08-17T01:44:59.100Z,20.74
2022-08-17T01:47:27.540Z,20.69
2022-08-17T01:49:58.158Z,20.61
2022-08-17T01:52:26.402Z,20.55
2022-08-17T01:54:56.740Z,20.58
2022-08-17T01:57:25.016Z,20.62
2022-08-17T01:59:53.333Z,20.63
2022-08-17T02:02:30.447Z,20.62
2022-08-17T02:05:00.480Z,20.60
2022-08-17T02:07:29.260Z,20.67
2022-08-17T02:09:59.589Z,20.70
2022-08-17T02:12:38.840Z,20.67
2022-08-17T02:15:12.511Z,19.78
2022-08-17T02:17:41.757Z,20.52
2022-08-17T02:20:11.629Z,20.51
2022-08-17T02:22:41.956Z,20.53
2022-08-17T02:25:14.281Z,20.31
2022-08-17T02:27:42.680Z,20.49
2022-08-17T02:30:59.513Z,20.33
2022-08-17T02:33:04.226Z,20.32
2022-08-17T02:35:34.597Z,20.52
2022-08-17T02:38:03.039Z,20.51
2022-08-17T02:40:36.363Z,20.53
2022-08-17T02:43:05.428Z,20.49
2022-08-17T02:45:33.927Z,20.48
2022-08-17T02:48:02.385Z,20.43
2022-08-17T02:50:30.879Z,20.43
2022-08-17T02:53:02.585Z,20.38
2022-08-17T02:55:37.106Z,20.34
2022-08-17T02:58:06.303Z,20.36
2022-08-17T03:00:36.990Z,20.41
2022-08-17T03:03:07.424Z,20.13
2022-08-17T03:05:37.561Z,20.35
2022-08-17T03:08:07.312Z,20.32
2022-08-17T03:10:43.628Z,20.36
2022-08-17T03:13:14.459Z,20.37
2022-08-17T03:15:45.369Z,19.35
2022-08-17T03:18:24.523Z,20.42
2022-08-17T03:20:56.076Z,20.37
2022-08-17T03:23:25.300Z,20.33
2022-08-17T03:25:56.523Z,20.35
2022-08-17T03:28:25.514Z,20.37
2022-08-17T03:30:54.366Z,20.39
2022-08-17T03:33:23.355Z,20.47
2022-08-17T03:35:51.891Z,20.47
2022-08-17T03:38:20.500Z,20.41
2022-08-17T03:40:57.226Z,20.39
2022-08-17T03:43:30.605Z,20.36
2022-08-17T03:46:29.040Z,20.33
2022-08-17T03:49:22.878Z,20.33
2022-08-17T03:52:08.824Z,20.38
2022-08-17T03:54:51.332Z,20.42
2022-08-17T03:57:20.499Z,20.45
2022-08-17T03:59:50.846Z,20.46
2022-08-17T04:02:22.088Z,20.45
2022-08-17T04:04:51.406Z,20.40
2022-08-17T04:07:20.441Z,20.45
2022-08-17T04:09:49.422Z,20.51
2022-08-17T04:12:19.518Z,20.57
2022-08-17T04:14:53.722Z,20.65
2022-08-17T04:17:25.000Z,20.41
2022-08-17T04:19:53.602Z,20.67
2022-08-17T04:22:32.048Z,20.66
2022-08-17T04:25:16.568Z,20.63
2022-08-17T04:27:45.128Z,20.66
2022-08-17T04:30:15.247Z,20.71
2022-08-17T04:33:19.158Z,20.65
2022-08-17T04:35:45.702Z,19.98
2022-08-17T04:38:16.530Z,20.55
2022-08-17T04:41:03.485Z,20.72
2022-08-17T04:43:33.998Z,20.45
2022-08-17T04:46:08.045Z,20.71
2022-08-17T04:48:41.730Z,20.52
2022-08-17T04:51:13.360Z,20.53
2022-08-17T04:53:44.281Z,20.71
2022-08-17T04:56:16.796Z,20.53
2022-08-17T04:58:47.760Z,20.70
2022-08-17T05:01:23.381Z,20.70
2022-08-17T05:03:53.330Z,20.66
2022-08-17T05:06:22.082Z,20.60
2022-08-17T05:08:50.374Z,20.43
2022-08-17T05:11:18.963Z,20.53
2022-08-17T05:13:50.349Z,20.42
2022-08-17T05:16:21.525Z,20.51
2022-08-17T05:18:50.449Z,20.48
2022-08-17T05:21:19.893Z,20.45
2022-08-17T05:23:53.252Z,20.45
2022-08-17T05:26:25.738Z,20.26
2022-08-17T05:29:02.567Z,20.45
2022-08-17T05:31:32.889Z,20.43
2022-08-17T05:34:01.426Z,20.44
2022-08-17T05:36:41.962Z,20.50
2022-08-17T05:39:16.462Z,20.55
2022-08-17T05:41:48.123Z,20.53
2022-08-17T05:44:17.219Z,20.74
2022-08-17T05:46:50.673Z,20.36
2022-08-17T05:49:27.276Z,20.83
2022-08-17T05:52:22.096Z,20.83
2022-08-17T05:55:04.704Z,20.67
2022-08-17T05:58:01.145Z,20.84
2022-08-17T06:00:33.075Z,20.93
2022-08-17T06:03:20.259Z,21.06
2022-08-17T06:06:02.549Z,21.14
2022-08-17T06:08:39.629Z,20.92
2022-08-17T06:11:18.261Z,21.04
2022-08-17T06:14:05.118Z,21.26
2022-08-17T06:16:38.812Z,21.12
2022-08-17T06:19:16.084Z,21.16
2022-08-17T06:21:49.044Z,21.23
2022-08-17T06:24:27.520Z,21.43
2022-08-17T06:26:58.553Z,21.40
2022-08-17T06:29:37.311Z,22.09
2022-08-17T06:32:09.717Z,21.94
2022-08-17T06:34:44.460Z,23.10
2022-08-17T06:37:35.552Z,22.94
2022-08-17T06:40:21.462Z,23.33
2022-08-17T06:43:05.533Z,23.66
2022-08-17T06:45:42.258Z,23.31
2022-08-17T06:48:16.989Z,23.93
2022-08-17T06:50:54.635Z,24.06
2022-08-17T06:53:28.218Z,23.68
2022-08-17T06:56:01.122Z,24.43
2022-08-17T06:58:32.420Z,25.10
2022-08-17T07:01:06.826Z,25.24
2022-08-17T07:03:40.871Z,25.33
2022-08-17T07:06:15.693Z,25.43
2022-08-17T07:08:54.941Z,24.86
2022-08-17T07:11:28.632Z,25.60
2022-08-17T07:14:08.561Z,25.99
2022-08-17T07:16:42.416Z,26.04
2022-08-17T07:19:11.256Z,26.20
2022-08-17T07:21:48.992Z,25.33
2022-08-17T07:24:31.193Z,26.17
2022-08-17T07:27:12.650Z,26.44
2022-08-17T07:29:45.533Z,25.65
2022-08-17T07:32:18.683Z,26.74
2022-08-17T07:35:11.449Z,26.95
2022-08-17T07:37:43.816Z,27.09
2022-08-17T07:40:35.392Z,27.40
2022-08-17T07:43:23.821Z,27.58
2022-08-17T07:46:14.009Z,27.68
2022-08-17T07:48:45.165Z,27.44
2022-08-17T07:51:21.013Z,27.38
2022-08-17T07:53:50.781Z,27.44
2022-08-17T07:56:39.123Z,27.41
2022-08-17T07:59:13.646Z,26.75
2022-08-17T08:01:47.111Z,27.10
2022-08-17T08:04:50.018Z,27.19
2022-08-17T08:07:32.103Z,27.26
2022-08-17T08:10:11.207Z,27.20
2022-08-17T08:12:42.115Z,27.24
2022-08-17T08:15:18.773Z,27.20
2022-08-17T08:17:51.962Z,26.88
2022-08-17T08:20:42.386Z,27.48
2022-08-17T08:23:26.720Z,26.65
2022-08-17T08:26:08.109Z,27.54
2022-08-17T08:28:45.935Z,27.70
2022-08-17T08:31:24.477Z,27.64
2022-08-17T08:34:04.471Z,27.55
2022-08-17T08:37:13.054Z,27.47
2022-08-17T08:39:48.551Z,27.36
2022-08-17T08:42:25.568Z,27.32
2022-08-17T08:45:04.627Z,27.21
2022-08-17T08:47:57.473Z,27.26
2022-08-17T08:50:47.613Z,27.20
2022-08-17T08:53:30.333Z,27.15
2022-08-17T08:56:04.222Z,27.27
2022-08-17T08:58:42.813Z,27.32
2022-08-17T09:01:22.302Z,27.21
2022-08-17T09:04:24.611Z,26.85
2022-08-17T09:07:04.532Z,27.54
2022-08-17T09:09:41.742Z,27.79
2022-08-17T09:12:18.110Z,27.93
2022-08-17T09:14:56.709Z,27.87
2022-08-17T09:17:36.887Z,27.25
2022-08-17T09:20:14.455Z,28.15
2022-08-17T09:23:04.103Z,28.13
2022-08-17T09:25:35.776Z,28.22
2022-08-17T09:28:08.138Z,28.26
2022-08-17T09:30:43.391Z,28.49
2022-08-17T09:33:15.322Z,28.55
2022-08-17T09:35:47.967Z,28.71
2022-08-17T09:38:30.342Z,27.98
2022-08-17T09:41:09.265Z,28.57
2022-08-17T09:43:44.048Z,28.35
2022-08-17T09:46:21.560Z,28.20
2022-08-17T09:48:58.209Z,28.34
2022-08-17T09:51:36.516Z,28.26
2022-08-17T09:54:35.184Z,28.14
2022-08-17T09:57:29.032Z,27.94
2022-08-17T10:00:17.049Z,27.68
2022-08-17T10:03:19.983Z,27.73
2022-08-17T10:05:56.558Z,27.64
2022-08-17T10:08:38.182Z,27.48
2022-08-17T10:11:19.823Z,27.51
2022-08-17T10:13:59.486Z,27.44
2022-08-17T10:16:37.483Z,27.44
2022-08-17T10:19:15.015Z,27.38
2022-08-17T10:22:32.337Z,26.52
2022-08-17T10:25:22.581Z,27.02
2022-08-17T10:27:56.183Z,27.10
2022-08-17T10:30:27.764Z,27.08
2022-08-17T10:32:59.402Z,27.08
2022-08-17T10:35:40.799Z,26.22
2022-08-17T10:38:38.410Z,27.08
2022-08-17T10:41:25.374Z,26.92
2022-08-17T10:44:38.331Z,26.97
2022-08-17T10:47:07.639Z,27.17
2022-08-17T10:49:38.806Z,27.21
2022-08-17T10:52:44.990Z,27.20
2022-08-17T10:55:16.508Z,27.24
2022-08-17T10:57:47.841Z,27.24
2022-08-17T11:00:57.997Z,27.18
2022-08-17T11:03:27.813Z,27.12
2022-08-17T11:06:13.118Z,27.11
2022-08-17T11:09:08.997Z,27.09
2022-08-17T11:12:00.523Z,26.95
2022-08-17T11:14:49.062Z,27.12
2022-08-17T11:17:49.901Z,27.17
2022-08-17T11:20:35.890Z,27.18
2022-08-17T11:23:50.440Z,27.18
2022-08-17T11:26:27.885Z,27.17
2022-08-17T11:29:01.530Z,27.13
2022-08-17T11:31:39.890Z,27.17
2022-08-17T11:34:18.972Z,27.17
2022-08-17T11:37:02.633Z,27.16
2022-08-17T11:39:54.901Z,27.14
2022-08-17T11:42:34.484Z,27.10
2022-08-17T11:45:10.076Z,26.90
2022-08-17T11:48:26.746Z,26.88
2022-08-17T11:51:16.797Z,27.04
2022-08-17T11:56:54.621Z,26.97
2022-08-17T11:59:58.621Z,27.00
2022-08-17T12:02:47.879Z,26.91
2022-08-17T12:05:40.246Z,26.80
2022-08-17T12:08:17.782Z,26.70
2022-08-17T12:11:04.288Z,26.52
2022-08-17T12:13:39.844Z,26.40
2022-08-17T12:16:14.866Z,26.35
2022-08-17T12:18:50.821Z,26.26
2022-08-17T12:21:33.540Z,26.13
2022-08-17T12:24:13.281Z,25.55
2022-08-17T12:26:44.122Z,25.90
2022-08-17T12:29:18.249Z,25.01
2022-08-17T12:32:08.496Z,25.49
2022-08-17T12:34:40.783Z,25.59
2022-08-17T12:37:16.410Z,25.33
2022-08-17T12:39:55.053Z,25.53
2022-08-17T12:42:26.485Z,25.28
2022-08-17T12:44:54.808Z,25.40
2022-08-17T12:47:24.756Z,25.40
2022-08-17T12:50:08.458Z,25.29
2022-08-17T12:53:01.679Z,25.22
2022-08-17T12:55:36.759Z,25.04
2022-08-17T12:58:05.469Z,25.19
2022-08-17T13:00:38.085Z,25.14
2022-08-17T13:03:13.839Z,25.12
2022-08-17T13:05:44.013Z,24.13
2022-08-17T13:08:16.164Z,23.98
2022-08-17T13:10:54.589Z,24.96
2022-08-17T13:13:26.140Z,24.81
2022-08-17T13:15:57.150Z,24.83
2022-08-17T13:18:43.064Z,24.99
2022-08-17T13:21:26.775Z,24.89
2022-08-17T13:23:57.854Z,24.65
2022-08-17T13:26:30.273Z,24.93
2022-08-17T13:28:59.575Z,25.02
2022-08-17T13:31:51.912Z,25.13
2022-08-17T13:34:36.933Z,24.21
2022-08-17T13:37:32.762Z,24.58
2022-08-17T13:40:05.373Z,25.06
2022-08-17T13:42:53.405Z,25.10
2022-08-17T13:45:54.616Z,24.55
2022-08-17T13:48:26.879Z,25.21
2022-08-17T13:51:14.984Z,25.18
2022-08-17T13:53:55.028Z,25.08
2022-08-17T13:56:38.443Z,24.74
2022-08-17T13:59:12.440Z,24.98
2022-08-17T14:01:43.677Z,25.13
2022-08-17T14:04:14.329Z,25.40
2022-08-17T14:06:54.007Z,25.45
2022-08-17T14:09:25.410Z,25.80
2022-08-17T14:11:55.206Z,25.58
2022-08-17T14:14:24.565Z,26.03
2022-08-17T14:16:53.873Z,26.16
2022-08-17T14:19:23.097Z,26.29
2022-08-17T14:21:56.547Z,26.35
2022-08-17T14:24:32.860Z,26.43
2022-08-17T14:27:03.492Z,26.51
2022-08-17T14:29:34.410Z,26.52
2022-08-17T14:32:18.073Z,26.09
2022-08-17T14:34:47.178Z,26.62
2022-08-17T14:37:17.340Z,26.70
2022-08-17T14:39:45.752Z,26.79
2022-08-17T14:42:15.219Z,26.79
2022-08-17T14:44:43.550Z,26.79
2022-08-17T14:47:14.925Z,26.82
2022-08-17T14:49:43.841Z,26.81
2022-08-17T14:52:21.558Z,26.85
2022-08-17T14:54:51.613Z,26.07
2022-08-17T14:57:33.781Z,26.77
2022-08-17T15:00:03.989Z,26.79
2022-08-17T15:02:33.271Z,26.83
2022-08-17T15:05:03.388Z,26.78
2022-08-17T15:07:33.703Z,26.64
2022-08-17T15:10:02.864Z,26.52
2022-08-17T15:12:33.540Z,26.38
2022-08-17T15:15:04.760Z,26.29
2022-08-17T15:17:44.737Z,26.29
2022-08-17T15:20:15.968Z,26.36
2022-08-17T15:22:49.819Z,26.50
2022-08-17T15:25:19.376Z,26.55
2022-08-17T15:27:49.076Z,26.57
2022-08-17T15:30:17.981Z,26.57
2022-08-17T15:32:54.049Z,26.56
2022-08-17T15:35:27.107Z,26.58
2022-08-17T15:38:07.817Z,26.56
2022-08-17T15:40:42.294Z,26.37
2022-08-17T15:43:13.682Z,26.55
2022-08-17T15:45:42.025Z,26.46
2022-08-17T15:48:10.811Z,26.31
2022-08-17T15:50:40.158Z,26.15
2022-08-17T15:53:10.021Z,25.98
2022-08-17T15:55:38.765Z,25.89
2022-08-17T15:58:07.337Z,25.79
2022-08-17T16:00:53.177Z,25.68
2022-08-17T16:03:58.248Z,25.47
2022-08-17T16:06:14.275Z,25.33
2022-08-17T16:08:45.006Z,25.25
2022-08-17T16:11:14.360Z,25.17
2022-08-17T16:13:42.837Z,25.13
2022-08-17T16:16:23.764Z,25.03
2022-08-17T16:18:56.340Z,24.99
2022-08-17T16:21:42.379Z,24.94
2022-08-17T16:24:13.540Z,24.79
2022-08-17T16:26:43.252Z,24.63
2022-08-17T16:29:11.629Z,24.54
2022-08-17T16:31:43.360Z,24.46
2022-08-17T16:34:17.876Z,24.35
2022-08-17T16:36:54.779Z,24.22
2022-08-17T16:39:26.917Z,24.11
2022-08-17T16:41:56.145Z,24.03
2022-08-17T16:44:25.985Z,23.96
2022-08-17T16:46:54.521Z,23.97
2022-08-17T16:49:35.426Z,23.88
2022-08-17T16:52:10.129Z,23.84
2022-08-17T16:54:44.002Z,23.72
2022-08-17T16:57:13.525Z,23.69
2022-08-17T16:59:44.975Z,23.62
2022-08-17T17:02:17.637Z,23.57
2022-08-17T17:04:53.039Z,22.72
2022-08-17T17:07:51.908Z,23.42
2022-08-17T17:10:25.832Z,23.49
2022-08-17T17:13:03.310Z,23.38
2022-08-17T17:15:53.706Z,22.73
2022-08-17T17:18:27.670Z,21.51
2022-08-17T17:20:57.783Z,22.21
2022-08-17T17:23:36.674Z,21.74
2022-08-17T17:26:19.132Z,21.20
2022-08-17T17:28:59.503Z,20.86
2022-08-17T17:31:34.937Z,20.70
2022-08-17T17:34:07.786Z,20.67
2022-08-17T17:36:41.173Z,20.72
2022-08-17T17:39:14.758Z,19.90
2022-08-17T17:41:48.457Z,20.73
2022-08-17T17:44:19.982Z,20.40
2022-08-17T17:46:52.169Z,20.43
2022-08-17T17:49:20.626Z,20.74
2022-08-17T17:52:09.495Z,20.59
2022-08-17T17:54:54.133Z,20.56
2022-08-17T17:57:36.767Z,20.60
2022-08-17T18:00:12.140Z,20.75
2022-08-17T18:02:53.397Z,20.81
2022-08-17T18:05:45.372Z,20.71
2022-08-17T18:08:32.381Z,20.41
2022-08-17T18:11:35.451Z,20.54
2022-08-17T18:14:14.917Z,20.48
2022-08-17T18:16:44.319Z,20.48
2022-08-17T18:19:14.035Z,20.49
2022-08-17T18:21:47.051Z,20.24
2022-08-17T18:24:15.696Z,20.33
2022-08-17T18:26:51.421Z,20.19
2022-08-17T18:29:34.402Z,19.77
2022-08-17T18:32:33.883Z,19.99
2022-08-17T18:35:18.655Z,19.66
2022-08-17T18:37:49.680Z,19.71
2022-08-17T18:40:37.704Z,19.46
2022-08-17T18:43:12.591Z,19.59
2022-08-17T18:45:49.297Z,19.55
2022-08-17T18:48:25.702Z,19.52
2022-08-17T18:50:57.317Z,19.38
2022-08-17T18:53:34.706Z,19.59
2022-08-17T18:56:34.704Z,19.49
2022-08-17T18:59:10.185Z,19.47
2022-08-17T19:01:52.667Z,19.12
2022-08-17T19:04:36.554Z,19.05
2022-08-17T19:07:12.038Z,19.22
2022-08-17T19:09:44.878Z,19.29
2022-08-17T19:12:27.013Z,19.36
2022-08-17T19:14:58.229Z,19.11
2022-08-17T19:17:35.501Z,19.34
2022-08-17T19:20:10.069Z,19.32
2022-08-17T19:22:52.287Z,19.07
2022-08-17T19:25:27.051Z,19.19
2022-08-17T19:28:03.191Z,19.22
2022-08-17T19:30:33.165Z,19.27
2022-08-17T19:33:04.398Z,19.32
2022-08-17T19:35:43.891Z,18.10
2022-08-17T19:38:27.842Z,19.28
2022-08-17T19:41:04.499Z,19.18
2022-08-17T19:43:50.585Z,19.27
2022-08-17T19:46:29.936Z,18.16
2022-08-17T19:49:07.464Z,19.27
2022-08-17T19:51:44.930Z,18.24
2022-08-17T19:54:20.599Z,19.17
2022-08-17T19:57:01.686Z,19.44
2022-08-17T19:59:51.059Z,19.48
2022-08-17T20:02:34.840Z,19.17
2022-08-17T20:05:12.864Z,19.18
2022-08-17T20:07:50.235Z,19.16
2022-08-17T20:10:28.096Z,19.04
2022-08-17T20:13:00.684Z,18.94
2022-08-17T20:15:31.811Z,18.64
2022-08-17T20:18:03.592Z,18.85
2022-08-17T20:20:42.834Z,17.74
2022-08-17T20:23:30.169Z,18.68
2022-08-17T20:26:08.371Z,18.97
2022-08-17T20:28:39.145Z,19.05
2022-08-17T20:31:42.161Z,19.03
2022-08-17T20:34:36.676Z,18.76
2022-08-17T20:37:09.802Z,18.61
2022-08-17T20:39:42.019Z,17.86
2022-08-17T20:42:29.096Z,18.87
2022-08-17T20:44:58.965Z,18.83
2022-08-17T20:47:30.056Z,18.87
2022-08-17T20:50:03.371Z,18.91
2022-08-17T20:53:00.894Z,18.88
2022-08-17T20:55:53.244Z,18.87
2022-08-17T20:58:47.743Z,18.80
2022-08-17T21:01:24.448Z,18.75
2022-08-17T21:03:54.285Z,18.77
2022-08-17T21:06:26.174Z,18.57
2022-08-17T21:08:59.433Z,18.82
2022-08-17T21:12:03.909Z,18.75
2022-08-17T21:14:57.463Z,18.67
2022-08-17T21:17:44.730Z,18.62
2022-08-17T21:20:32.124Z,18.58
2022-08-17T21:23:27.761Z,18.53
2022-08-17T21:26:13.781Z,18.55
2022-08-17T21:29:01.719Z,18.43
2022-08-17T21:31:51.082Z,18.62
2022-08-17T21:34:30.712Z,18.44
2022-08-17T21:37:29.934Z,18.56
2022-08-17T21:40:01.043Z,18.34
2022-08-17T21:42:34.541Z,18.53
2022-08-17T21:45:13.337Z,18.52
2022-08-17T21:47:43.479Z,18.54
2022-08-17T21:50:18.844Z,18.58
2022-08-17T21:52:48.273Z,18.56
2022-08-17T21:55:28.230Z,18.54
2022-08-17T21:58:13.722Z,18.51
2022-08-17T22:00:45.099Z,18.50
2022-08-17T22:03:26.103Z,17.63
2022-08-17T22:05:54.558Z,18.56
2022-08-17T22:08:25.304Z,18.55
2022-08-17T22:11:02.114Z,18.55
2022-08-17T22:13:31.852Z,18.58
2022-08-17T22:16:15.448Z,18.55
2022-08-17T22:18:57.796Z,18.50
2022-08-17T22:21:26.382Z,18.48
2022-08-17T22:24:05.474Z,18.27
2022-08-17T22:27:00.660Z,18.39
2022-08-17T22:29:59.479Z,18.41
2022-08-17T22:32:40.968Z,17.75
2022-08-17T22:35:37.563Z,18.43
2022-08-17T22:38:32.218Z,18.46
2022-08-17T22:41:31.815Z,18.24
2022-08-17T22:44:07.817Z,18.43
2022-08-17T22:46:41.297Z,18.20
2022-08-17T22:49:09.681Z,18.41
2022-08-17T22:51:38.546Z,18.43
2022-08-17T22:54:37.393Z,18.41
2022-08-17T22:57:26.492Z,18.37
2022-08-17T22:59:57.660Z,18.41
2022-08-17T23:02:29.566Z,18.44
2022-08-17T23:05:24.152Z,18.45
2022-08-17T23:07:53.761Z,18.43
2022-08-17T23:10:22.021Z,18.43
2022-08-17T23:12:50.429Z,18.43
2022-08-17T23:15:19.900Z,17.48
2022-08-17T23:17:48.247Z,18.60
2022-08-17T23:20:17.795Z,18.44
2022-08-17T23:22:51.911Z,18.74
2022-08-17T23:25:28.124Z,18.76
2022-08-17T23:27:57.651Z,18.77
2022-08-17T23:30:28.664Z,18.78
2022-08-17T23:32:59.547Z,18.79
2022-08-17T23:35:40.578Z,18.73
2022-08-17T23:38:11.735Z,18.74
2022-08-17T23:40:42.059Z,18.72
2022-08-17T23:43:24.655Z,18.73
2022-08-17T23:45:55.328Z,18.73
2022-08-17T23:48:36.270Z,18.74
2022-08-17T23:51:13.626Z,18.42
2022-08-17T23:53:47.770Z,18.55
2022-08-17T23:56:22.743Z,18.34
2022-08-17T23:58:51.940Z,18.39
